sensor_id;sensor_type;location;lat;lon;timestamp;temperature;humidity
1361;DHT22;674;45.552;-122.600;2024-03-29T00:02:25;10.10;2.60
1361;DHT22;674;45.552;-122.600;2024-03-29T00:04:52;10.10;1.00
1361;DHT22;674;45.552;-122.600;2024-03-29T00:07:20;10.30;1.00
1361;DHT22;674;45.552;-122.600;2024-03-29T00:09:47;10.30;1.00
1361;DHT22;674;45.552;-122.600;2024-03-29T00:12:14;10.10;1.00
1361;DHT22;674;45.552;-122.600;2024-03-29T00:14:40;10.00;1.00
1361;DHT22;674;45.552;-122.600;2024-03-29T00:17:07;10.00;1.00
1361;DHT22;674;45.552;-122.600;2024-03-29T00:19:34;9.80;1.00
1361;DHT22;674;45.552;-122.600;2024-03-29T00:22:00;9.70;1.00
1361;DHT22;674;45.552;-122.600;2024-03-29T00:24:27;9.60;1.00
1361;DHT22;674;45.552;-122.600;2024-03-29T00:26:54;9.60;1.00
1361;DHT22;674;45.552;-122.600;2024-03-29T00:29:21;9.60;1.00
1361;DHT22;674;45.552;-122.600;2024-03-29T00:31:47;9.70;1.00
1361;DHT22;674;45.552;-122.600;2024-03-29T00:34:14;9.60;1.00
1361;DHT22;674;45.552;-122.600;2024-03-29T00:36:41;9.60;1.00
1361;DHT22;674;45.552;-122.600;2024-03-29T00:39:08;9.60;1.00
1361;DHT22;674;45.552;-122.600;2024-03-29T00:41:37;9.60;1.00
1361;DHT22;674;45.552;-122.600;2024-03-29T00:44:03;9.50;1.00
1361;DHT22;674;45.552;-122.600;2024-03-29T00:46:30;9.40;1.00
1361;DHT22;674;45.552;-122.600;2024-03-29T00:48:57;9.40;1.00
1361;DHT22;674;45.552;-122.600;2024-03-29T00:51:23;9.40;1.00
1361;DHT22;674;45.552;-122.600;2024-03-29T00:53:50;9.30;1.00
1361;DHT22;674;45.552;-122.600;2024-03-29T00:56:17;9.10;1.00
1361;DHT22;674;45.552;-122.600;2024-03-29T00:58:44;9.10;1.00
1361;DHT22;674;45.552;-122.600;2024-03-29T01:01:11;9.20;1.00
1361;DHT22;674;45.552;-122.600;2024-03-29T01:03:38;9.10;1.00
1361;DHT22;674;45.552;-122.600;2024-03-29T01:06:05;9.30;1.00
1361;DHT22;674;45.552;-122.600;2024-03-29T01:08:32;9.20;1.00
1361;DHT22;674;45.552;-122.600;2024-03-29T01:10:59;9.20;1.00
1361;DHT22;674;45.552;-122.600;2024-03-29T01:13:26;9.30;1.00
1361;DHT22;674;45.552;-122.600;2024-03-29T01:15:53;9.30;1.00
1361;DHT22;674;45.552;-122.600;2024-03-29T01:18:20;9.30;1.00
1361;DHT22;674;45.552;-122.600;2024-03-29T01:20:47;9.20;1.00
1361;DHT22;674;45.552;-122.600;2024-03-29T01:23:14;9.10;1.00
1361;DHT22;674;45.552;-122.600;2024-03-29T01:25:41;9.20;1.00
1361;DHT22;674;45.552;-122.600;2024-03-29T01:28:08;9.10;1.00
1361;DHT22;674;45.552;-122.600;2024-03-29T01:30:35;9.30;1.00
1361;DHT22;674;45.552;-122.600;2024-03-29T01:33:02;9.10;1.00
1361;DHT22;674;45.552;-122.600;2024-03-29T01:35:29;9.10;1.00
1361;DHT22;674;45.552;-122.600;2024-03-29T01:37:57;9.00;1.00
1361;DHT22;674;45.552;-122.600;2024-03-29T01:40:24;8.90;1.00
1361;DHT22;674;45.552;-122.600;2024-03-29T01:42:54;9.00;1.00
1361;DHT22;674;45.552;-122.600;2024-03-29T01:45:21;9.10;1.00
1361;DHT22;674;45.552;-122.600;2024-03-29T01:47:48;8.70;1.00
1361;DHT22;674;45.552;-122.600;2024-03-29T01:50:15;8.70;1.00
1361;DHT22;674;45.552;-122.600;2024-03-29T01:52:42;8.60;2.30
1361;DHT22;674;45.552;-122.600;2024-03-29T01:55:10;8.40;5.30
1361;DHT22;674;45.552;-122.600;2024-03-29T01:57:37;8.50;8.60
1361;DHT22;674;45.552;-122.600;2024-03-29T02:00:05;8.30;13.70
1361;DHT22;674;45.552;-122.600;2024-03-29T02:02:33;8.30;19.10
1361;DHT22;674;45.552;-122.600;2024-03-29T02:05:01;8.30;28.00
1361;DHT22;674;45.552;-122.600;2024-03-29T02:07:29;8.40;36.50
1361;DHT22;674;45.552;-122.600;2024-03-29T02:09:57;8.30;51.40
1361;DHT22;674;45.552;-122.600;2024-03-29T02:12:24;8.30;59.90
1361;DHT22;674;45.552;-122.600;2024-03-29T02:14:51;8.30;65.60
1361;DHT22;674;45.552;-122.600;2024-03-29T02:17:17;8.30;68.80
1361;DHT22;674;45.552;-122.600;2024-03-29T02:19:44;8.20;74.00
1361;DHT22;674;45.552;-122.600;2024-03-29T02:22:15;8.10;82.30
1361;DHT22;674;45.552;-122.600;2024-03-29T02:24:45;8.10;87.60
1361;DHT22;674;45.552;-122.600;2024-03-29T02:27:12;8.10;91.00
1361;DHT22;674;45.552;-122.600;2024-03-29T02:29:39;8.00;93.60
1361;DHT22;674;45.552;-122.600;2024-03-29T02:32:06;8.10;97.70
1361;DHT22;674;45.552;-122.600;2024-03-29T02:34:33;7.90;99.40
1361;DHT22;674;45.552;-122.600;2024-03-29T02:37:02;8.10;99.90
1361;DHT22;674;45.552;-122.600;2024-03-29T02:39:29;8.10;99.90
1361;DHT22;674;45.552;-122.600;2024-03-29T02:41:57;8.00;99.90
1361;DHT22;674;45.552;-122.600;2024-03-29T02:44:24;7.90;99.90
1361;DHT22;674;45.552;-122.600;2024-03-29T02:46:51;8.00;99.90
1361;DHT22;674;45.552;-122.600;2024-03-29T02:49:18;7.90;99.90
1361;DHT22;674;45.552;-122.600;2024-03-29T02:51:45;8.00;99.90
1361;DHT22;674;45.552;-122.600;2024-03-29T02:54:12;7.90;99.90
1361;DHT22;674;45.552;-122.600;2024-03-29T02:56:39;7.80;99.90
1361;DHT22;674;45.552;-122.600;2024-03-29T02:59:06;7.80;99.90
1361;DHT22;674;45.552;-122.600;2024-03-29T03:01:33;7.80;99.90
1361;DHT22;674;45.552;-122.600;2024-03-29T03:04:00;7.80;99.90
1361;DHT22;674;45.552;-122.600;2024-03-29T03:06:27;7.90;99.90
1361;DHT22;674;45.552;-122.600;2024-03-29T03:08:54;7.90;99.90
1361;DHT22;674;45.552;-122.600;2024-03-29T03:11:47;7.80;98.60
1361;DHT22;674;45.552;-122.600;2024-03-29T03:14:13;7.60;95.90
1361;DHT22;674;45.552;-122.600;2024-03-29T03:16:40;7.60;97.40
1361;DHT22;674;45.552;-122.600;2024-03-29T03:19:07;7.70;96.20
1361;DHT22;674;45.552;-122.600;2024-03-29T03:21:35;7.70;96.00
1361;DHT22;674;45.552;-122.600;2024-03-29T03:24:02;7.70;94.40
1361;DHT22;674;45.552;-122.600;2024-03-29T03:26:31;7.70;93.20
1361;DHT22;674;45.552;-122.600;2024-03-29T03:28:58;7.70;92.00
1361;DHT22;674;45.552;-122.600;2024-03-29T03:31:25;7.50;92.20
1361;DHT22;674;45.552;-122.600;2024-03-29T03:33:52;7.90;90.50
1361;DHT22;674;45.552;-122.600;2024-03-29T03:36:20;7.70;88.30
1361;DHT22;674;45.552;-122.600;2024-03-29T03:38:47;7.70;78.70
1361;DHT22;674;45.552;-122.600;2024-03-29T03:41:14;7.60;76.40
1361;DHT22;674;45.552;-122.600;2024-03-29T03:43:41;7.70;67.80
1361;DHT22;674;45.552;-122.600;2024-03-29T03:46:08;7.60;62.30
1361;DHT22;674;45.552;-122.600;2024-03-29T03:48:35;7.60;49.70
1361;DHT22;674;45.552;-122.600;2024-03-29T03:51:02;7.60;53.60
1361;DHT22;674;45.552;-122.600;2024-03-29T03:53:32;7.60;50.70
1361;DHT22;674;45.552;-122.600;2024-03-29T03:56:01;7.50;36.40
1361;DHT22;674;45.552;-122.600;2024-03-29T03:58:28;7.60;32.10
1361;DHT22;674;45.552;-122.600;2024-03-29T04:00:55;7.60;33.20
1361;DHT22;674;45.552;-122.600;2024-03-29T04:03:22;7.50;21.10
1361;DHT22;674;45.552;-122.600;2024-03-29T04:05:49;7.60;15.70
1361;DHT22;674;45.552;-122.600;2024-03-29T04:08:16;7.60;16.70
1361;DHT22;674;45.552;-122.600;2024-03-29T04:10:45;7.50;18.10
1361;DHT22;674;45.552;-122.600;2024-03-29T04:13:12;7.60;18.50
1361;DHT22;674;45.552;-122.600;2024-03-29T04:15:39;7.50;20.80
1361;DHT22;674;45.552;-122.600;2024-03-29T04:18:06;7.40;21.50
1361;DHT22;674;45.552;-122.600;2024-03-29T04:20:33;7.60;20.90
1361;DHT22;674;45.552;-122.600;2024-03-29T04:23:00;7.50;18.60
1361;DHT22;674;45.552;-122.600;2024-03-29T04:25:30;7.50;14.70
1361;DHT22;674;45.552;-122.600;2024-03-29T04:27:57;7.40;13.80
1361;DHT22;674;45.552;-122.600;2024-03-29T04:30:25;7.50;10.30
1361;DHT22;674;45.552;-122.600;2024-03-29T04:32:52;7.40;14.80
1361;DHT22;674;45.552;-122.600;2024-03-29T04:35:19;7.40;10.90
1361;DHT22;674;45.552;-122.600;2024-03-29T04:37:46;7.60;17.00
1361;DHT22;674;45.552;-122.600;2024-03-29T04:40:13;7.40;11.80
1361;DHT22;674;45.552;-122.600;2024-03-29T04:42:40;7.50;5.90
1361;DHT22;674;45.552;-122.600;2024-03-29T04:45:07;7.50;3.70
1361;DHT22;674;45.552;-122.600;2024-03-29T04:47:34;7.40;5.80
1361;DHT22;674;45.552;-122.600;2024-03-29T04:50:02;7.20;9.80
1361;DHT22;674;45.552;-122.600;2024-03-29T04:52:29;7.20;13.90
1361;DHT22;674;45.552;-122.600;2024-03-29T04:54:56;7.40;12.30
1361;DHT22;674;45.552;-122.600;2024-03-29T04:57:23;7.40;12.90
1361;DHT22;674;45.552;-122.600;2024-03-29T04:59:50;7.60;17.50
1361;DHT22;674;45.552;-122.600;2024-03-29T05:02:17;7.50;17.70
1361;DHT22;674;45.552;-122.600;2024-03-29T05:04:44;7.60;19.40
1361;DHT22;674;45.552;-122.600;2024-03-29T05:07:11;7.40;23.80
1361;DHT22;674;45.552;-122.600;2024-03-29T05:09:38;7.40;26.30
1361;DHT22;674;45.552;-122.600;2024-03-29T05:12:05;7.50;29.40
1361;DHT22;674;45.552;-122.600;2024-03-29T05:14:32;7.60;35.20
1361;DHT22;674;45.552;-122.600;2024-03-29T05:16:59;7.50;37.80
1361;DHT22;674;45.552;-122.600;2024-03-29T05:19:26;7.50;45.20
1361;DHT22;674;45.552;-122.600;2024-03-29T05:21:53;7.60;46.50
1361;DHT22;674;45.552;-122.600;2024-03-29T05:24:20;7.50;45.60
1361;DHT22;674;45.552;-122.600;2024-03-29T05:26:47;7.50;46.80
1361;DHT22;674;45.552;-122.600;2024-03-29T05:29:14;7.50;51.60
1361;DHT22;674;45.552;-122.600;2024-03-29T05:31:41;7.60;54.40
1361;DHT22;674;45.552;-122.600;2024-03-29T05:34:09;7.60;54.50
1361;DHT22;674;45.552;-122.600;2024-03-29T05:36:36;7.50;61.10
1361;DHT22;674;45.552;-122.600;2024-03-29T05:39:03;7.60;61.60
1361;DHT22;674;45.552;-122.600;2024-03-29T05:41:30;7.50;61.90
1361;DHT22;674;45.552;-122.600;2024-03-29T05:43:58;7.60;60.90
1361;DHT22;674;45.552;-122.600;2024-03-29T05:46:25;7.40;60.40
1361;DHT22;674;45.552;-122.600;2024-03-29T05:48:52;7.40;57.40
1361;DHT22;674;45.552;-122.600;2024-03-29T05:51:19;7.40;58.00
1361;DHT22;674;45.552;-122.600;2024-03-29T05:53:46;7.50;55.30
1361;DHT22;674;45.552;-122.600;2024-03-29T05:56:13;7.50;56.30
1361;DHT22;674;45.552;-122.600;2024-03-29T05:58:40;7.40;46.40
1361;DHT22;674;45.552;-122.600;2024-03-29T06:01:07;7.40;42.00
1361;DHT22;674;45.552;-122.600;2024-03-29T06:03:34;7.60;32.50
1361;DHT22;674;45.552;-122.600;2024-03-29T06:06:01;7.50;28.40
1361;DHT22;674;45.552;-122.600;2024-03-29T06:08:28;7.30;29.10
1361;DHT22;674;45.552;-122.600;2024-03-29T06:10:55;7.40;23.90
1361;DHT22;674;45.552;-122.600;2024-03-29T06:13:23;7.50;24.80
1361;DHT22;674;45.552;-122.600;2024-03-29T06:16:16;7.60;22.00
1361;DHT22;674;45.552;-122.600;2024-03-29T06:19:01;7.50;23.70
1361;DHT22;674;45.552;-122.600;2024-03-29T06:21:28;7.50;13.30
1361;DHT22;674;45.552;-122.600;2024-03-29T06:23:55;7.60;11.00
1361;DHT22;674;45.552;-122.600;2024-03-29T06:26:22;7.50;6.80
1361;DHT22;674;45.552;-122.600;2024-03-29T06:28:49;7.50;6.40
1361;DHT22;674;45.552;-122.600;2024-03-29T06:31:16;7.70;2.30
1361;DHT22;674;45.552;-122.600;2024-03-29T06:33:43;7.50;2.50
1361;DHT22;674;45.552;-122.600;2024-03-29T06:36:11;7.50;1.00
1361;DHT22;674;45.552;-122.600;2024-03-29T06:38:38;7.60;1.50
1361;DHT22;674;45.552;-122.600;2024-03-29T06:41:05;7.70;1.00
1361;DHT22;674;45.552;-122.600;2024-03-29T06:43:32;7.50;1.00
1361;DHT22;674;45.552;-122.600;2024-03-29T06:45:59;7.60;1.00
1361;DHT22;674;45.552;-122.600;2024-03-29T06:48:26;7.60;1.00
1361;DHT22;674;45.552;-122.600;2024-03-29T06:50:53;7.30;1.00
1361;DHT22;674;45.552;-122.600;2024-03-29T06:53:20;7.30;1.00
1361;DHT22;674;45.552;-122.600;2024-03-29T06:55:47;7.30;1.00
1361;DHT22;674;45.552;-122.600;2024-03-29T06:58:16;7.20;1.00
1361;DHT22;674;45.552;-122.600;2024-03-29T07:00:46;7.20;1.00
1361;DHT22;674;45.552;-122.600;2024-03-29T07:03:16;7.20;1.00
1361;DHT22;674;45.552;-122.600;2024-03-29T07:05:48;7.20;1.00
1361;DHT22;674;45.552;-122.600;2024-03-29T07:08:15;7.20;1.00
1361;DHT22;674;45.552;-122.600;2024-03-29T07:10:42;7.20;1.00
1361;DHT22;674;45.552;-122.600;2024-03-29T07:13:09;7.10;1.00
1361;DHT22;674;45.552;-122.600;2024-03-29T07:15:37;7.10;1.00
1361;DHT22;674;45.552;-122.600;2024-03-29T07:18:04;7.20;1.00
1361;DHT22;674;45.552;-122.600;2024-03-29T07:20:31;7.30;1.00
1361;DHT22;674;45.552;-122.600;2024-03-29T07:22:58;7.20;1.00
1361;DHT22;674;45.552;-122.600;2024-03-29T07:25:25;7.20;1.00
1361;DHT22;674;45.552;-122.600;2024-03-29T07:27:52;7.20;1.00
1361;DHT22;674;45.552;-122.600;2024-03-29T07:30:20;7.40;1.00
1361;DHT22;674;45.552;-122.600;2024-03-29T07:32:47;7.00;1.00
1361;DHT22;674;45.552;-122.600;2024-03-29T07:35:14;6.90;1.00
1361;DHT22;674;45.552;-122.600;2024-03-29T07:37:42;7.00;1.00
1361;DHT22;674;45.552;-122.600;2024-03-29T07:40:14;6.90;1.00
1361;DHT22;674;45.552;-122.600;2024-03-29T07:42:41;7.30;1.00
1361;DHT22;674;45.552;-122.600;2024-03-29T07:45:08;6.90;1.00
1361;DHT22;674;45.552;-122.600;2024-03-29T07:47:35;6.90;1.00
1361;DHT22;674;45.552;-122.600;2024-03-29T07:50:03;6.80;1.00
1361;DHT22;674;45.552;-122.600;2024-03-29T07:52:30;6.90;1.00
1361;DHT22;674;45.552;-122.600;2024-03-29T07:54:57;6.90;1.00
1361;DHT22;674;45.552;-122.600;2024-03-29T07:57:24;6.90;1.00
1361;DHT22;674;45.552;-122.600;2024-03-29T07:59:51;6.90;1.00
1361;DHT22;674;45.552;-122.600;2024-03-29T08:02:18;6.90;1.00
1361;DHT22;674;45.552;-122.600;2024-03-29T08:04:45;6.90;1.00
1361;DHT22;674;45.552;-122.600;2024-03-29T08:07:12;6.80;5.30
1361;DHT22;674;45.552;-122.600;2024-03-29T08:09:39;6.70;10.80
1361;DHT22;674;45.552;-122.600;2024-03-29T08:12:06;7.00;17.80
1361;DHT22;674;45.552;-122.600;2024-03-29T08:14:33;6.90;16.70
1361;DHT22;674;45.552;-122.600;2024-03-29T08:17:00;6.90;20.10
1361;DHT22;674;45.552;-122.600;2024-03-29T08:19:31;6.90;23.80
1361;DHT22;674;45.552;-122.600;2024-03-29T08:21:58;7.10;26.90
1361;DHT22;674;45.552;-122.600;2024-03-29T08:24:28;7.20;24.60
1361;DHT22;674;45.552;-122.600;2024-03-29T08:26:55;7.20;24.50
1361;DHT22;674;45.552;-122.600;2024-03-29T08:29:22;7.00;27.70
1361;DHT22;674;45.552;-122.600;2024-03-29T08:31:49;7.10;27.60
1361;DHT22;674;45.552;-122.600;2024-03-29T08:34:15;7.10;29.30
1361;DHT22;674;45.552;-122.600;2024-03-29T08:36:42;7.20;25.70
1361;DHT22;674;45.552;-122.600;2024-03-29T08:39:09;7.20;23.80
1361;DHT22;674;45.552;-122.600;2024-03-29T08:41:37;7.00;28.30
1361;DHT22;674;45.552;-122.600;2024-03-29T08:44:06;6.90;14.50
1361;DHT22;674;45.552;-122.600;2024-03-29T08:46:33;6.80;19.60
1361;DHT22;674;45.552;-122.600;2024-03-29T08:49:00;6.80;14.60
1361;DHT22;674;45.552;-122.600;2024-03-29T08:51:27;6.70;8.90
1361;DHT22;674;45.552;-122.600;2024-03-29T08:53:55;6.80;7.50
1361;DHT22;674;45.552;-122.600;2024-03-29T08:56:24;6.60;6.30
1361;DHT22;674;45.552;-122.600;2024-03-29T08:58:51;6.70;9.30
1361;DHT22;674;45.552;-122.600;2024-03-29T09:01:18;6.40;12.60
1361;DHT22;674;45.552;-122.600;2024-03-29T09:03:45;6.30;8.00
1361;DHT22;674;45.552;-122.600;2024-03-29T09:06:12;6.10;12.00
1361;DHT22;674;45.552;-122.600;2024-03-29T09:08:39;6.20;20.70
1361;DHT22;674;45.552;-122.600;2024-03-29T09:11:06;6.30;28.30
1361;DHT22;674;45.552;-122.600;2024-03-29T09:13:33;6.30;34.30
1361;DHT22;674;45.552;-122.600;2024-03-29T09:16:00;6.30;38.40
1361;DHT22;674;45.552;-122.600;2024-03-29T09:18:27;6.00;46.00
1361;DHT22;674;45.552;-122.600;2024-03-29T09:20:58;6.20;51.20
1361;DHT22;674;45.552;-122.600;2024-03-29T09:23:27;6.10;58.50
1361;DHT22;674;45.552;-122.600;2024-03-29T09:25:57;6.30;62.70
1361;DHT22;674;45.552;-122.600;2024-03-29T09:28:25;6.20;66.20
1361;DHT22;674;45.552;-122.600;2024-03-29T09:30:58;6.30;71.10
1361;DHT22;674;45.552;-122.600;2024-03-29T09:33:25;6.20;70.50
1361;DHT22;674;45.552;-122.600;2024-03-29T09:35:52;6.20;74.40
1361;DHT22;674;45.552;-122.600;2024-03-29T09:38:21;6.20;74.90
1361;DHT22;674;45.552;-122.600;2024-03-29T09:41:00;6.30;70.40
1361;DHT22;674;45.552;-122.600;2024-03-29T09:43:30;6.30;71.90
1361;DHT22;674;45.552;-122.600;2024-03-29T09:45:57;6.00;71.60
1361;DHT22;674;45.552;-122.600;2024-03-29T09:48:25;6.50;66.90
1361;DHT22;674;45.552;-122.600;2024-03-29T09:50:54;6.30;62.70
1361;DHT22;674;45.552;-122.600;2024-03-29T09:53:23;6.50;67.30
1361;DHT22;674;45.552;-122.600;2024-03-29T09:55:50;6.30;64.90
1361;DHT22;674;45.552;-122.600;2024-03-29T09:58:17;6.20;61.00
1361;DHT22;674;45.552;-122.600;2024-03-29T10:00:44;6.20;60.40
1361;DHT22;674;45.552;-122.600;2024-03-29T10:03:11;6.20;57.90
1361;DHT22;674;45.552;-122.600;2024-03-29T10:05:39;6.10;55.60
1361;DHT22;674;45.552;-122.600;2024-03-29T10:08:07;6.10;50.60
1361;DHT22;674;45.552;-122.600;2024-03-29T10:10:34;5.90;47.90
1361;DHT22;674;45.552;-122.600;2024-03-29T10:13:01;5.70;58.50
1361;DHT22;674;45.552;-122.600;2024-03-29T10:15:30;5.90;58.90
1361;DHT22;674;45.552;-122.600;2024-03-29T10:17:59;5.50;63.40
1361;DHT22;674;45.552;-122.600;2024-03-29T10:20:27;5.50;67.20
1361;DHT22;674;45.552;-122.600;2024-03-29T10:22:53;5.60;66.70
1361;DHT22;674;45.552;-122.600;2024-03-29T10:25:22;5.60;74.30
1361;DHT22;674;45.552;-122.600;2024-03-29T10:27:49;5.30;82.40
1361;DHT22;674;45.552;-122.600;2024-03-29T10:30:16;5.50;90.90
1361;DHT22;674;45.552;-122.600;2024-03-29T10:32:46;5.30;91.50
1361;DHT22;674;45.552;-122.600;2024-03-29T10:35:13;5.20;94.30
1361;DHT22;674;45.552;-122.600;2024-03-29T10:37:42;5.10;95.70
1361;DHT22;674;45.552;-122.600;2024-03-29T10:40:11;5.40;96.10
1361;DHT22;674;45.552;-122.600;2024-03-29T10:42:42;5.20;98.20
1361;DHT22;674;45.552;-122.600;2024-03-29T10:45:10;5.00;99.90
1361;DHT22;674;45.552;-122.600;2024-03-29T10:47:38;5.00;99.90
1361;DHT22;674;45.552;-122.600;2024-03-29T10:50:09;5.10;99.90
1361;DHT22;674;45.552;-122.600;2024-03-29T10:52:36;5.00;99.90
1361;DHT22;674;45.552;-122.600;2024-03-29T10:55:05;4.90;99.90
1361;DHT22;674;45.552;-122.600;2024-03-29T10:57:34;5.10;99.90
1361;DHT22;674;45.552;-122.600;2024-03-29T11:00:13;5.20;99.90
1361;DHT22;674;45.552;-122.600;2024-03-29T11:05:16;5.20;99.90
1361;DHT22;674;45.552;-122.600;2024-03-29T11:07:44;4.90;99.90
1361;DHT22;674;45.552;-122.600;2024-03-29T11:10:25;5.00;99.90
1361;DHT22;674;45.552;-122.600;2024-03-29T11:15:45;5.00;99.90
1361;DHT22;674;45.552;-122.600;2024-03-29T11:18:14;5.30;99.90
1361;DHT22;674;45.552;-122.600;2024-03-29T11:20:46;5.20;99.90
1361;DHT22;674;45.552;-122.600;2024-03-29T11:23:19;5.10;99.90
1361;DHT22;674;45.552;-122.600;2024-03-29T11:25:54;5.20;99.90
1361;DHT22;674;45.552;-122.600;2024-03-29T11:28:27;5.10;99.90
1361;DHT22;674;45.552;-122.600;2024-03-29T11:31:02;5.10;99.90
1361;DHT22;674;45.552;-122.600;2024-03-29T11:33:32;5.30;99.90
1361;DHT22;674;45.552;-122.600;2024-03-29T11:36:28;4.90;99.90
1361;DHT22;674;45.552;-122.600;2024-03-29T11:38:58;5.00;99.90
1361;DHT22;674;45.552;-122.600;2024-03-29T11:41:28;5.00;99.90
1361;DHT22;674;45.552;-122.600;2024-03-29T11:43:56;4.70;99.90
1361;DHT22;674;45.552;-122.600;2024-03-29T11:46:24;4.90;99.90
1361;DHT22;674;45.552;-122.600;2024-03-29T11:48:51;4.80;99.90
1361;DHT22;674;45.552;-122.600;2024-03-29T11:51:20;4.80;99.90
1361;DHT22;674;45.552;-122.600;2024-03-29T11:53:48;5.30;99.90
1361;DHT22;674;45.552;-122.600;2024-03-29T11:56:18;5.30;99.90
1361;DHT22;674;45.552;-122.600;2024-03-29T11:58:47;5.00;99.90
1361;DHT22;674;45.552;-122.600;2024-03-29T12:01:15;5.40;99.90
1361;DHT22;674;45.552;-122.600;2024-03-29T12:03:43;5.10;99.90
1361;DHT22;674;45.552;-122.600;2024-03-29T12:06:10;5.30;99.90
1361;DHT22;674;45.552;-122.600;2024-03-29T12:08:41;5.30;99.90
1361;DHT22;674;45.552;-122.600;2024-03-29T12:11:09;5.30;99.90
1361;DHT22;674;45.552;-122.600;2024-03-29T12:13:36;4.90;99.90
1361;DHT22;674;45.552;-122.600;2024-03-29T12:16:04;5.30;99.90
1361;DHT22;674;45.552;-122.600;2024-03-29T12:18:31;5.00;99.90
1361;DHT22;674;45.552;-122.600;2024-03-29T12:20:59;5.30;99.90
1361;DHT22;674;45.552;-122.600;2024-03-29T12:23:26;5.20;99.90
1361;DHT22;674;45.552;-122.600;2024-03-29T12:25:58;5.10;99.90
1361;DHT22;674;45.552;-122.600;2024-03-29T12:28:26;5.30;99.90
1361;DHT22;674;45.552;-122.600;2024-03-29T12:30:53;5.00;99.90
1361;DHT22;674;45.552;-122.600;2024-03-29T12:33:22;5.30;99.90
1361;DHT22;674;45.552;-122.600;2024-03-29T12:35:53;5.00;99.90
1361;DHT22;674;45.552;-122.600;2024-03-29T12:38:21;5.30;99.90
1361;DHT22;674;45.552;-122.600;2024-03-29T12:40:50;5.30;99.90
1361;DHT22;674;45.552;-122.600;2024-03-29T12:43:22;5.30;99.90
1361;DHT22;674;45.552;-122.600;2024-03-29T12:45:50;5.20;99.90
1361;DHT22;674;45.552;-122.600;2024-03-29T12:48:19;5.40;99.90
1361;DHT22;674;45.552;-122.600;2024-03-29T12:50:52;5.00;99.90
1361;DHT22;674;45.552;-122.600;2024-03-29T12:53:20;5.30;99.90
1361;DHT22;674;45.552;-122.600;2024-03-29T12:55:47;5.30;99.90
1361;DHT22;674;45.552;-122.600;2024-03-29T12:58:16;5.20;99.90
1361;DHT22;674;45.552;-122.600;2024-03-29T13:00:46;5.50;99.90
1361;DHT22;674;45.552;-122.600;2024-03-29T13:03:14;5.50;99.90
1361;DHT22;674;45.552;-122.600;2024-03-29T13:05:41;5.60;99.90
1361;DHT22;674;45.552;-122.600;2024-03-29T13:08:11;5.70;99.90
1361;DHT22;674;45.552;-122.600;2024-03-29T13:10:42;5.50;99.90
1361;DHT22;674;45.552;-122.600;2024-03-29T13:13:10;5.60;99.90
1361;DHT22;674;45.552;-122.600;2024-03-29T13:15:38;5.60;99.90
1361;DHT22;674;45.552;-122.600;2024-03-29T13:18:06;5.60;99.90
1361;DHT22;674;45.552;-122.600;2024-03-29T13:20:36;5.40;99.90
1361;DHT22;674;45.552;-122.600;2024-03-29T13:23:08;5.50;99.90
1361;DHT22;674;45.552;-122.600;2024-03-29T13:25:35;5.90;99.90
1361;DHT22;674;45.552;-122.600;2024-03-29T13:28:02;6.00;99.90
1361;DHT22;674;45.552;-122.600;2024-03-29T13:30:29;5.70;99.90
1361;DHT22;674;45.552;-122.600;2024-03-29T13:32:56;5.90;99.90
1361;DHT22;674;45.552;-122.600;2024-03-29T13:35:23;6.00;99.90
1361;DHT22;674;45.552;-122.600;2024-03-29T13:37:51;5.90;99.90
1361;DHT22;674;45.552;-122.600;2024-03-29T13:40:23;6.00;99.90
1361;DHT22;674;45.552;-122.600;2024-03-29T13:42:51;6.00;99.90
1361;DHT22;674;45.552;-122.600;2024-03-29T13:45:18;5.90;99.90
1361;DHT22;674;45.552;-122.600;2024-03-29T13:47:45;6.00;99.90
1361;DHT22;674;45.552;-122.600;2024-03-29T13:50:15;5.70;99.90
1361;DHT22;674;45.552;-122.600;2024-03-29T13:52:43;5.90;99.90
1361;DHT22;674;45.552;-122.600;2024-03-29T13:55:10;5.80;99.90
1361;DHT22;674;45.552;-122.600;2024-03-29T13:57:38;5.70;99.90
1361;DHT22;674;45.552;-122.600;2024-03-29T14:00:05;6.00;99.90
1361;DHT22;674;45.552;-122.600;2024-03-29T14:02:33;5.80;99.90
1361;DHT22;674;45.552;-122.600;2024-03-29T14:05:01;5.70;95.30
1361;DHT22;674;45.552;-122.600;2024-03-29T14:07:28;5.90;95.90
1361;DHT22;674;45.552;-122.600;2024-03-29T14:09:55;5.90;96.80
1361;DHT22;674;45.552;-122.600;2024-03-29T14:12:22;6.20;96.40
1361;DHT22;674;45.552;-122.600;2024-03-29T14:14:52;6.00;92.00
1361;DHT22;674;45.552;-122.600;2024-03-29T14:17:19;5.80;87.90
1361;DHT22;674;45.552;-122.600;2024-03-29T14:19:48;6.00;90.30
1361;DHT22;674;45.552;-122.600;2024-03-29T14:22:18;5.80;87.60
1361;DHT22;674;45.552;-122.600;2024-03-29T14:24:50;5.90;91.70
1361;DHT22;674;45.552;-122.600;2024-03-29T14:27:16;6.00;90.50
1361;DHT22;674;45.552;-122.600;2024-03-29T14:29:44;5.90;90.80
1361;DHT22;674;45.552;-122.600;2024-03-29T14:32:12;5.70;93.00
1361;DHT22;674;45.552;-122.600;2024-03-29T14:34:40;6.20;94.30
1361;DHT22;674;45.552;-122.600;2024-03-29T14:37:13;6.20;93.60
1361;DHT22;674;45.552;-122.600;2024-03-29T14:39:42;6.20;95.40
1361;DHT22;674;45.552;-122.600;2024-03-29T14:42:10;6.20;94.90
1361;DHT22;674;45.552;-122.600;2024-03-29T14:44:44;6.30;93.70
1361;DHT22;674;45.552;-122.600;2024-03-29T14:47:11;6.40;89.20
1361;DHT22;674;45.552;-122.600;2024-03-29T14:49:38;6.60;87.30
1361;DHT22;674;45.552;-122.600;2024-03-29T14:52:05;6.60;82.10
1361;DHT22;674;45.552;-122.600;2024-03-29T14:54:32;6.90;67.20
1361;DHT22;674;45.552;-122.600;2024-03-29T14:56:59;6.90;45.60
1361;DHT22;674;45.552;-122.600;2024-03-29T14:59:27;6.90;26.70
1361;DHT22;674;45.552;-122.600;2024-03-29T15:01:56;6.70;23.40
1361;DHT22;674;45.552;-122.600;2024-03-29T15:04:24;6.80;19.90
1361;DHT22;674;45.552;-122.600;2024-03-29T15:06:51;7.10;14.30
1361;DHT22;674;45.552;-122.600;2024-03-29T15:09:18;6.90;1.00
1361;DHT22;674;45.552;-122.600;2024-03-29T15:11:45;7.30;1.00
1361;DHT22;674;45.552;-122.600;2024-03-29T15:14:12;7.10;4.50
1361;DHT22;674;45.552;-122.600;2024-03-29T15:16:39;7.20;1.00
1361;DHT22;674;45.552;-122.600;2024-03-29T15:19:06;7.10;1.00
1361;DHT22;674;45.552;-122.600;2024-03-29T15:21:34;7.20;1.00
1361;DHT22;674;45.552;-122.600;2024-03-29T15:24:03;7.20;1.00
1361;DHT22;674;45.552;-122.600;2024-03-29T15:26:30;7.30;1.00
1361;DHT22;674;45.552;-122.600;2024-03-29T15:28:58;7.30;1.00
1361;DHT22;674;45.552;-122.600;2024-03-29T15:31:41;7.30;1.00
1361;DHT22;674;45.552;-122.600;2024-03-29T15:34:10;7.70;1.00
1361;DHT22;674;45.552;-122.600;2024-03-29T15:36:38;7.60;1.00
1361;DHT22;674;45.552;-122.600;2024-03-29T15:39:06;7.60;1.00
1361;DHT22;674;45.552;-122.600;2024-03-29T15:41:37;7.50;1.00
1361;DHT22;674;45.552;-122.600;2024-03-29T15:44:04;7.60;1.00
1361;DHT22;674;45.552;-122.600;2024-03-29T15:46:31;7.60;1.00
1361;DHT22;674;45.552;-122.600;2024-03-29T15:48:59;7.70;1.00
1361;DHT22;674;45.552;-122.600;2024-03-29T15:51:26;7.70;1.00
1361;DHT22;674;45.552;-122.600;2024-03-29T15:53:54;7.80;1.00
1361;DHT22;674;45.552;-122.600;2024-03-29T15:56:27;7.80;1.00
1361;DHT22;674;45.552;-122.600;2024-03-29T15:58:56;7.90;1.00
1361;DHT22;674;45.552;-122.600;2024-03-29T16:01:25;8.20;1.00